Time;durP1;ratioP1;P1;durP2;ratioP2;P2;SDS_P1;SDS_P2;PMS_P1;PMS_P2;Temp;Humidity;BMP_temperature;BMP_pressure;BME280_temperature;BME280_humidity;BME280_pressure;Samples;Min_cycle;Max_cycle;Signal;HPM_P1;HPM_P2
2022/01/24 00:00:16;;;;;;;10.55;7.20;;;;;;;;;;5111909;27;20417;-79
2022/01/24 00:02:43;;;;;;;8.70;7.30;;;;;;;;;;5064675;28;20795;-79
2022/01/24 00:05:10;;;;;;;8.68;6.85;;;;;;;;;;5085853;28;20454;-78
2022/01/24 00:07:36;;;;;;;8.18;6.63;;;;;;;;;;5090642;28;20417;-78
2022/01/24 00:10:06;;;;;;;8.80;6.70;;;;;;;;;;5082797;28;20973;-78
2022/01/24 00:12:42;;;;;;;8.80;6.88;;;;;;;;;;5089503;28;20445;-78
2022/01/24 00:15:23;;;;;;;9.15;7.20;;;;;;;;;;5081721;28;20831;-78
2022/01/24 00:18:02;;;;;;;9.02;6.63;;;;;;;;;;5077239;28;20452;-78
2022/01/24 00:28:42;;;;;;;8.38;6.93;;;;;;;;;;5078084;28;21007;-77
2022/01/24 00:31:08;;;;;;;10.40;6.75;;;;;;;;;;5093392;28;20417;-78
2022/01/24 00:33:34;;;;;;;8.60;6.57;;;;;;;;;;5071542;28;20511;-78
2022/01/24 00:36:00;;;;;;;7.88;6.30;;;;;;;;;;5121698;27;20429;-78
2022/01/24 00:38:26;;;;;;;8.57;6.47;;;;;;;;;;5071415;28;20433;-78
2022/01/24 00:40:52;;;;;;;8.40;6.75;;;;;;;;;;5071452;28;20451;-78
2022/01/24 00:43:31;;;;;;;8.80;6.85;;;;;;;;;;5086366;28;20924;-78
2022/01/24 00:46:17;;;;;;;8.73;7.00;;;;;;;;;;5071435;28;20574;-78
2022/01/24 00:49:24;;;;;;;9.27;6.88;;;;;;;;;;5112338;27;20408;-78
2022/01/24 00:57:05;;;;;;;7.70;6.30;;;;;;;;;;5088277;28;20426;-78
2022/01/24 00:59:31;;;;;;;10.67;6.53;;;;;;;;;;5091385;28;20778;-78
2022/01/24 01:01:57;;;;;;;8.35;6.30;;;;;;;;;;5056935;28;20414;-77
2022/01/24 01:04:30;;;;;;;9.00;6.65;;;;;;;;;;5074064;28;20410;-78
2022/01/24 01:07:04;;;;;;;9.02;6.93;;;;;;;;;;5083656;28;20426;-78
2022/01/24 01:20:33;;;;;;;8.35;6.60;;;;;;;;;;5070989;28;20431;-77
2022/01/24 01:22:59;;;;;;;8.30;6.30;;;;;;;;;;5070006;28;20413;-77
2022/01/24 01:25:25;;;;;;;8.55;6.40;;;;;;;;;;5082121;28;20895;-78
2022/01/24 01:27:53;;;;;;;9.87;6.80;;;;;;;;;;5075029;28;20441;-77
2022/01/24 01:30:24;;;;;;;9.50;6.90;;;;;;;;;;5087601;28;20418;-77
2022/01/24 01:38:18;;;;;;;9.27;6.85;;;;;;;;;;5088221;28;20410;-77
2022/01/24 01:56:52;;;;;;;10.10;7.23;;;;;;;;;;5087821;28;20466;-78
2022/01/24 01:59:18;;;;;;;9.02;6.72;;;;;;;;;;5073577;28;20413;-78
2022/01/24 02:01:44;;;;;;;8.52;6.80;;;;;;;;;;5087175;28;20406;-78
2022/01/24 02:04:10;;;;;;;10.95;6.72;;;;;;;;;;5089778;28;20410;-78
2022/01/24 02:06:38;;;;;;;9.80;7.30;;;;;;;;;;5081430;28;20504;-78
2022/01/24 02:09:09;;;;;;;9.20;7.07;;;;;;;;;;5087691;28;20617;-78
2022/01/24 02:11:36;;;;;;;9.70;7.13;;;;;;;;;;5086573;28;20426;-78
2022/01/24 02:14:06;;;;;;;10.57;7.25;;;;;;;;;;5054406;28;20415;-78
2022/01/24 02:16:43;;;;;;;10.73;7.32;;;;;;;;;;5073031;28;20769;-78
2022/01/24 02:19:36;;;;;;;10.10;7.20;;;;;;;;;;5085896;28;20414;-78
2022/01/24 02:24:43;;;;;;;10.82;7.47;;;5.70;99.90;;;;;;5091599;28;20443;-78
2022/01/24 02:27:11;;;;;;;9.85;7.07;;;;;;;;;;5085925;28;20430;-78
2022/01/24 02:32:13;;;;;;;10.55;7.13;;;;;;;;;;5082050;28;20431;-77
2022/01/24 02:34:42;;;;;;;10.05;7.53;;;;;;;;;;5086654;28;20425;-77
2022/01/24 02:37:13;;;;;;;11.70;7.43;;;;;;;;;;5082140;28;20433;-77
2022/01/24 02:50:59;;;;;;;11.10;8.37;;;;;;;;;;5098545;27;20414;-78
2022/01/24 02:53:26;;;;;;;10.10;7.70;;;;;;;;;;5087178;28;20660;-78
2022/01/24 02:55:52;;;;;;;10.52;8.32;;;;;;;;;;5083198;28;20419;-78
2022/01/24 02:58:19;;;;;;;10.80;8.15;;;;;;;;;;5085274;28;20841;-78
2022/01/24 03:00:46;;;;;;;11.63;8.82;;;;;;;;;;5068079;28;20925;-77
2022/01/24 03:03:12;;;;;;;11.50;8.88;;;;;;;;;;5087088;28;20414;-77
2022/01/24 03:05:38;;;;;;;13.00;10.77;;;;;;;;;;5064523;28;20413;-77
2022/01/24 03:08:06;;;;;;;11.50;8.83;;;;;;;;;;5085365;28;20472;-78
2022/01/24 03:10:46;;;;;;;10.85;8.70;;;;;;;;;;5086423;28;20453;-78
2022/01/24 03:15:52;;;;;;;12.48;9.32;;;5.80;99.90;;;;;;5113865;27;20417;-77
2022/01/24 03:18:19;;;;;;;14.82;11.73;;;;;;;;;;5085208;28;20426;-77
2022/01/24 03:20:45;;;;;;;12.50;9.27;;;;;;;;;;5094200;28;20482;-77
2022/01/24 03:23:13;;;;;;;12.20;8.95;;;;;;;;;;5090157;28;20418;-78
2022/01/24 03:25:39;;;;;;;12.65;9.60;;;;;;;;;;5079311;28;20410;-78
2022/01/24 03:28:05;;;;;;;14.80;9.57;;;;;;;;;;5090513;28;20463;-78
2022/01/24 03:30:32;;;;;;;12.47;9.67;;;;;;;;;;5084134;28;20414;-78
2022/01/24 03:32:58;;;;;;;14.53;10.10;;;;;;;;;;5091625;28;20417;-78
2022/01/24 03:35:24;;;;;;;14.13;10.05;;;;;;;;;;5071226;28;20449;-77
2022/01/24 03:37:50;;;;;;;14.80;10.57;;;;;;;;;;5084561;28;20438;-77
2022/01/24 03:40:16;;;;;;;13.95;10.00;;;;;;;;;;5086383;28;20414;-77
2022/01/24 03:42:43;;;;;;;16.27;10.43;;;;;;;;;;5080560;28;20422;-78
2022/01/24 03:45:11;;;;;;;15.63;11.50;;;;;;;;;;5087285;28;20458;-77
2022/01/24 03:48:04;;;;;;;15.50;11.13;;;;;;;;;;5096484;28;20901;-78
2022/01/24 03:50:30;;;;;;;16.27;11.73;;;;;;;;;;5070612;28;20418;-78
2022/01/24 03:52:56;;;;;;;18.40;11.57;;;;;;;;;;5084285;28;20470;-77
2022/01/24 03:55:22;;;;;;;15.23;11.40;;;;;;;;;;5076969;28;20417;-77
2022/01/24 03:57:48;;;;;;;18.35;11.00;;;;;;;;;;5087241;28;20428;-78
2022/01/24 04:00:14;;;;;;;16.83;11.77;;;;;;;;;;5111504;28;20488;-79
2022/01/24 04:02:41;;;;;;;16.52;11.63;;;;;;;;;;5089046;28;20417;-78
2022/01/24 04:05:07;;;;;;;17.70;12.10;;;;;;;;;;5100598;28;20418;-79
2022/01/24 04:07:34;;;;;;;15.90;11.90;;;;;;;;;;5069938;28;20425;-78
2022/01/24 04:10:06;;;;;;;16.88;12.27;;;;;;;;;;5061520;28;20424;-78
2022/01/24 04:12:34;;;;;;;16.33;12.15;;;;;;;;;;5086267;28;20409;-78
2022/01/24 04:18:11;;;;;;;17.23;12.88;;;;;;;;;;5070079;28;20911;-78
2022/01/24 04:23:22;;;;;;;17.40;13.20;;;;;;;;;;5092554;28;20447;-78
2022/01/24 04:25:48;;;;;;;18.42;13.27;;;;;;;;;;5091355;28;20471;-78
2022/01/24 04:28:14;;;;;;;17.98;13.68;;;;;;;;;;5072298;28;20497;-77
2022/01/24 04:30:42;;;;;;;18.20;13.48;;;;;;;;;;5089877;28;20432;-78
2022/01/24 04:33:08;;;;;;;19.50;14.38;;;;;;;;;;5088659;28;20757;-77
2022/01/24 04:35:34;;;;;;;18.85;13.73;;;;;;;;;;5101972;28;20421;-77
2022/01/24 04:38:00;;;;;;;17.67;13.05;;;;;;;;;;5085702;28;20417;-77
2022/01/24 04:40:26;;;;;;;18.75;13.57;;;;;;;;;;5120963;27;20779;-77
2022/01/24 04:43:02;;;;;;;20.40;13.80;;;;;;;;;;5076196;28;20454;-77
2022/01/24 04:45:49;;;;;;;18.05;13.15;;;;;;;;;;5083922;28;20414;-77
2022/01/24 04:53:26;;;;;;;18.13;13.13;;;;;;;;;;5090039;28;20418;-77
2022/01/24 04:55:52;;;;;;;19.02;14.48;;;;;;;;;;5093859;28;20425;-78
2022/01/24 04:58:18;;;;;;;18.40;13.15;;;;;;;;;;5089162;28;20457;-77
2022/01/24 05:00:45;;;;;;;17.70;12.95;;;;;;;;;;5072448;28;20425;-78
2022/01/24 05:03:11;;;;;;;19.20;13.63;;;;;;;;;;5098887;27;20925;-79
2022/01/24 05:05:37;;;;;;;17.27;12.88;;;;;;;;;;5074461;28;20431;-78
2022/01/24 05:08:05;;;;;;;21.08;14.55;;;;;;;;;;5089065;28;20440;-79
2022/01/24 05:10:38;;;;;;;19.42;13.90;;;;;;;;;;5087870;28;20418;-79
2022/01/24 05:23:56;;;;;;;17.85;12.90;;;;;;;;;;5086465;28;20417;-78
2022/01/24 05:26:22;;;;;;;17.85;12.73;;;;;;;;;;5088831;28;20409;-78
2022/01/24 05:28:48;;;;;;;17.83;13.15;;;;;;;;;;5071939;28;20427;-79
2022/01/24 05:31:14;;;;;;;21.23;15.52;;;;;;;;;;5060919;28;20417;-79
2022/01/24 05:33:41;;;;;;;18.17;13.03;;;;;;;;;;5085926;28;20461;-78
2022/01/24 05:36:07;;;;;;;17.40;12.95;;;;;;;;;;5071517;28;20453;-78
2022/01/24 05:38:33;;;;;;;19.03;12.53;;;;;;;;;;5068670;28;20425;-78
2022/01/24 05:40:59;;;;;;;15.80;11.98;;;;;;;;;;5090851;28;20405;-78
2022/01/24 05:43:25;;;;;;;16.40;12.33;;;;;;;;;;5097522;28;20424;-78
2022/01/24 05:45:52;;;;;;;17.63;12.73;;;;;;;;;;5098010;28;20422;-77
2022/01/24 05:48:18;;;;;;;16.90;12.60;;;;;;;;;;5091611;28;20457;-78
2022/01/24 05:50:44;;;;;;;16.42;12.32;;;;;;;;;;5074072;28;20413;-77
2022/01/24 05:53:10;;;;;;;17.38;11.90;;;;;;;;;;5076536;28;20438;-78
2022/01/24 05:55:36;;;;;;;15.90;11.80;;;;;;;;;;5086584;28;20422;-78
2022/01/24 05:58:02;;;;;;;18.42;12.35;;;;;;;;;;5070539;28;20430;-78
2022/01/24 06:00:28;;;;;;;16.02;12.13;;;;;;;;;;5081678;28;20744;-79
2022/01/24 06:02:54;;;;;;;17.23;13.57;;;;;;;;;;5085901;28;20409;-79
2022/01/24 06:05:20;;;;;;;16.90;12.70;;;;;;;;;;5087936;28;20420;-79
2022/01/24 06:07:49;;;;;;;15.10;11.68;;;;;;;;;;5085858;28;20457;-77
2022/01/24 06:10:15;;;;;;;16.02;12.30;;;;;;;;;;5068204;28;20463;-78
2022/01/24 06:12:41;;;;;;;15.45;11.55;;;;;;;;;;5070203;28;20429;-79
2022/01/24 06:15:08;;;;;;;19.45;13.13;;;;;;;;;;5085373;28;20819;-79
2022/01/24 06:17:34;;;;;;;15.48;11.52;;;;;;;;;;5067015;28;20517;-79
2022/01/24 06:20:00;;;;;;;16.73;12.32;;;;;;;;;;5084142;28;20506;-79
2022/01/24 06:22:26;;;;;;;17.77;12.90;;;;;;;;;;5070184;28;20418;-79
2022/01/24 06:24:52;;;;;;;18.40;13.73;;;;;;;;;;5075160;28;20406;-79
2022/01/24 06:27:18;;;;;;;18.38;13.30;;;;;;;;;;5108691;27;20453;-78
2022/01/24 06:29:44;;;;;;;18.13;13.02;;;;;;;;;;5088810;28;20421;-78
2022/01/24 06:32:10;;;;;;;16.75;12.73;;;;;;;;;;5088823;28;20469;-79
2022/01/24 06:34:37;;;;;;;17.27;12.90;;;;;;;;;;5068323;28;20761;-78
2022/01/24 06:37:03;;;;;;;14.38;11.40;;;;;;;;;;5085321;28;20430;-78
2022/01/24 06:39:30;;;;;;;15.90;11.95;;;;;;;;;;5087725;28;20414;-79
2022/01/24 06:42:21;;;;;;;18.48;13.82;;;;;;;;;;5092050;28;20404;-79
2022/01/24 06:44:48;;;;;;;17.00;11.75;;;;;;;;;;5070382;28;20459;-79
2022/01/24 06:47:14;;;;;;;15.60;11.15;;;;;;;;;;5084727;28;20410;-79
2022/01/24 06:49:40;;;;;;;15.60;12.00;;;;;;;;;;5083161;28;20436;-79
2022/01/24 06:52:07;;;;;;;15.55;11.52;;;;;;;;;;5091120;28;20439;-78
2022/01/24 06:54:36;;;;;;;15.52;11.70;;;;;;;;;;5101942;28;20413;-79
2022/01/24 06:57:03;;;;;;;15.82;11.63;;;;;;;;;;5074453;28;20503;-79
2022/01/24 06:59:30;;;;;;;15.55;11.63;;;;;;;;;;5068625;28;20436;-79
2022/01/24 07:01:56;;;;;;;17.83;12.70;;;;;;;;;;5087795;28;20481;-76
2022/01/24 07:04:22;;;;;;;20.35;12.63;;;;;;;;;;5081913;28;20422;-77
2022/01/24 07:06:48;;;;;;;17.10;12.73;;;;;;;;;;5069683;28;20808;-78
2022/01/24 07:09:14;;;;;;;18.48;13.63;;;;;;;;;;5082962;28;20414;-77
2022/01/24 07:11:40;;;;;;;16.67;13.00;;;;;;;;;;5084305;28;20421;-77
2022/01/24 07:14:11;;;;;;;18.73;13.02;;;;;;;;;;5070787;28;20453;-77
2022/01/24 07:17:02;;;;;;;17.48;12.80;;;;;;;;;;5114559;27;20417;-78
2022/01/24 07:19:24;;;;;;;18.45;12.63;;;;;;;;;;5084492;28;20441;-78
2022/01/24 07:21:50;;;;;;;18.73;13.63;;;;;;;;;;5100447;28;20464;-77
2022/01/24 07:24:16;;;;;;;19.50;13.35;;;;;;;;;;5082784;28;20410;-77
2022/01/24 07:26:42;;;;;;;18.33;13.35;;;;;;;;;;5087055;28;20799;-77
2022/01/24 07:29:09;;;;;;;17.88;13.40;;;;;;;;;;5081639;28;20735;-76
2022/01/24 07:31:35;;;;;;;18.92;13.80;;;;;;;;;;5070370;28;20422;-76
2022/01/24 07:34:01;;;;;;;18.80;13.70;;;;;;;;;;5086097;28;20799;-77
2022/01/24 07:36:27;;;;;;;17.85;13.55;;;;;;;;;;5088987;28;20921;-78
2022/01/24 07:38:53;;;;;;;18.75;13.93;;;;;;;;;;5055646;28;20471;-77
2022/01/24 07:41:26;;;;;;;19.20;13.52;;;;;;;;;;5092815;28;20408;-79
2022/01/24 07:43:52;;;;;;;20.67;14.57;;;;;;;;;;5085229;28;20996;-77
2022/01/24 07:46:18;;;;;;;18.58;14.32;;;;;;;;;;5087250;28;20418;-78
2022/01/24 07:48:44;;;;;;;18.07;13.60;;;;;;;;;;5084137;28;20475;-77
2022/01/24 07:51:10;;;;;;;18.92;13.60;;;;;;;;;;5086976;28;20421;-79
2022/01/24 07:53:37;;;;;;;19.38;13.70;;;;;;;;;;5070268;28;20413;-77
2022/01/24 07:56:04;;;;;;;19.20;14.23;;;;;;;;;;5080707;28;20627;-77
2022/01/24 07:58:30;;;;;;;21.40;14.25;;;;;;;;;;5056562;28;20429;-77
2022/01/24 08:00:56;;;;;;;22.67;14.10;;;;;;;;;;5075426;28;20420;-76
2022/01/24 08:03:22;;;;;;;18.00;13.63;;;;;;;;;;5057412;28;20411;-79
2022/01/24 08:05:48;;;;;;;19.52;13.73;;;;;;;;;;5072079;28;20421;-77
2022/01/24 08:08:14;;;;;;;18.88;14.15;;;;;;;;;;5071495;28;20417;-77
2022/01/24 08:10:40;;;;;;;20.15;13.73;;;;;;;;;;5087293;28;20425;-79
2022/01/24 08:13:07;;;;;;;17.83;13.13;;;;;;;;;;5090695;28;20491;-79
2022/01/24 08:15:33;;;;;;;19.05;14.25;;;;;;;;;;5090192;28;20501;-79
2022/01/24 08:17:59;;;;;;;19.95;14.38;;;;;;;;;;5084004;28;20789;-79
2022/01/24 08:20:25;;;;;;;21.80;15.68;;;;;;;;;;5090430;28;20497;-79
2022/01/24 08:22:51;;;;;;;21.55;16.20;;;;;;;;;;5054461;28;20411;-79
2022/01/24 08:25:18;;;;;;;19.85;14.95;;;;;;;;;;5099315;28;20791;-78
2022/01/24 08:27:46;;;;;;;23.90;17.60;;;;;;;;;;5091064;28;20437;-78
2022/01/24 08:30:17;;;;;;;29.10;21.65;;;;;;;;;;5094233;28;20421;-78
2022/01/24 08:32:43;;;;;;;25.33;18.40;;;;;;;;;;5072804;28;20906;-78
2022/01/24 08:35:10;;;;;;;22.95;16.75;;;;;;;;;;5089261;28;20464;-79
2022/01/24 08:37:37;;;;;;;24.40;17.67;;;;;;;;;;5073106;28;20426;-78
2022/01/24 08:40:04;;;;;;;25.15;17.73;;;;;;;;;;5092461;28;20408;-78
2022/01/24 08:42:53;;;;;;;22.80;16.88;;;;;;;;;;5098882;28;20513;-78
2022/01/24 08:48:04;;;;;;;22.67;16.95;;;;;;;;;;5089267;28;20568;-78
2022/01/24 08:50:30;;;;;;;25.27;17.77;;;;;;;;;;5074696;28;20413;-79
2022/01/24 08:53:03;;;;;;;24.88;18.35;;;;;;;;;;5071179;28;20462;-79
2022/01/24 08:55:30;;;;;;;24.65;18.05;;;6.00;99.90;;;;;;5091376;28;20421;-76
2022/01/24 08:57:56;;;;;;;25.05;18.15;;;;;;;;;;5075121;28;20426;-76
2022/01/24 09:00:23;;;;;;;25.83;18.02;;;;;;;;;;5083767;28;20418;-77
2022/01/24 09:02:49;;;;;;;26.42;19.30;;;;;;;;;;5091514;28;20421;-77
2022/01/24 09:05:17;;;;;;;28.60;18.87;;;;;;;;;;5088208;28;21348;-77
2022/01/24 09:07:44;;;;;;;29.70;20.13;;;;;;;;;;5084766;28;20428;-77
2022/01/24 09:10:10;;;;;;;28.73;19.27;;;;;;;;;;5088826;28;20433;-77
2022/01/24 09:12:36;;;;;;;30.25;20.45;;;;;;;;;;5089108;28;20425;-78
2022/01/24 09:15:02;;;;;;;30.63;21.03;;;6.10;99.90;;;;;;5081098;28;20495;-78
2022/01/24 09:17:28;;;;;;;26.83;18.93;;;;;;;;;;5070890;28;20537;-78
2022/01/24 09:19:54;;;;;;;28.92;19.05;;;;;;;;;;5099926;28;20414;-78
2022/01/24 09:22:21;;;;;;;28.45;19.60;;;;;;;;;;5087225;28;20914;-78
2022/01/24 09:24:47;;;;;;;31.10;20.02;;;;;;;;;;5085898;28;20718;-78
2022/01/24 09:27:13;;;;;;;30.27;20.52;;;;;;;;;;5074614;28;20425;-78
2022/01/24 09:29:39;;;;;;;28.63;20.00;;;;;;;;;;5094464;28;20421;-77
2022/01/24 09:32:05;;;;;;;29.42;20.02;;;;;;;;;;5073952;28;20430;-77
2022/01/24 09:34:31;;;;;;;29.55;20.65;;;;;;;;;;5084841;28;20823;-76
2022/01/24 09:36:57;;;;;;;30.10;20.42;;;;;;;;;;5066905;28;20438;-76
2022/01/24 09:39:23;;;;;;;28.88;18.75;;;;;;;;;;5082730;28;20493;-76
2022/01/24 09:41:51;;;;;;;29.87;20.10;;;;;;;;;;5072900;28;20977;-76
2022/01/24 09:44:17;;;;;;;31.83;21.02;;;;;;;;;;5064699;28;20427;-76
2022/01/24 09:46:46;;;;;;;30.70;20.80;;;;;;;;;;5084065;28;20422;-77
2022/01/24 09:49:12;;;;;;;31.75;21.27;;;;;;;;;;5089234;28;20910;-77
2022/01/24 09:51:39;;;;;;;31.43;21.33;;;;;;;;;;5090015;28;20785;-77
2022/01/24 09:54:06;;;;;;;31.80;21.42;;;;;;;;;;5083781;28;20426;-77
2022/01/24 09:56:32;;;;;;;32.30;21.23;;;;;;;;;;5093105;28;20965;-77
2022/01/24 09:58:58;;;;;;;34.72;22.27;;;;;;;;;;5088963;28;20429;-76
2022/01/24 10:01:24;;;;;;;32.42;20.65;;;;;;;;;;5070634;28;20750;-76
2022/01/24 10:04:09;;;;;;;33.50;21.70;;;;;;;;;;5085958;28;20421;-76
2022/01/24 10:06:54;;;;;;;35.83;22.13;;;;;;;;;;5065677;28;20946;-76
2022/01/24 10:09:27;;;;;;;36.80;23.35;;;;;;;;;;5056805;28;20964;-76
2022/01/24 10:12:05;;;;;;;35.73;22.83;;;;;;;;;;5078713;28;20517;-76
2022/01/24 10:17:24;;;;;;;38.30;24.33;;;;;;;;;;5108646;27;20416;-76
2022/01/24 10:19:51;;;;;;;37.25;24.90;;;;;;;;;;5059915;28;20506;-76
2022/01/24 10:22:21;;;;;;;41.08;25.90;;;;;;;;;;5091324;28;20939;-76
2022/01/24 10:24:56;;;;;;;39.75;26.17;;;;;;;;;;5075369;28;21026;-76
2022/01/24 10:27:28;;;;;;;38.92;25.40;;;;;;;;;;5071592;28;20437;-74
2022/01/24 10:29:54;;;;;;;41.33;26.83;;;;;;;;;;5059888;28;20917;-76
2022/01/24 10:32:31;;;;;;;40.88;26.83;;;;;;;;;;5074321;28;20766;-76
2022/01/24 10:35:17;;;;;;;44.05;27.35;;;;;;;;;;5072235;28;20441;-75
2022/01/24 10:37:44;;;;;;;44.67;29.60;;;;;;;;;;5057300;28;20430;-76
2022/01/24 10:40:20;;;;;;;43.83;27.80;;;;;;;;;;5041443;28;20764;-75
2022/01/24 10:42:52;;;;;;;43.38;29.00;;;;;;;;;;5090032;27;20455;-76
2022/01/24 10:45:21;;;;;;;45.10;29.10;;;;;;;;;;5058423;28;20395;-77
2022/01/24 10:47:50;;;;;;;44.20;29.23;;;;;;;;;;5075021;28;20498;-76
2022/01/24 10:50:34;;;;;;;45.42;29.13;;;;;;;;;;5075068;28;20943;-75
2022/01/24 10:53:09;;;;;;;48.35;30.95;;;;;;;;;;5078913;28;20413;-76
2022/01/24 10:55:36;;;;;;;44.55;28.98;;;;;;;;;;5069963;28;20641;-77
2022/01/24 10:58:05;;;;;;;48.27;30.50;;;;;;;;;;5049549;28;20423;-76
2022/01/24 11:00:32;;;;;;;49.50;31.77;;;;;;;;;;5073084;28;20429;-76
2022/01/24 11:03:06;;;;;;;48.05;31.80;;;;;;;;;;5072509;28;20428;-76
2022/01/24 11:05:36;;;;;;;51.65;32.72;;;;;;;;;;5104003;27;21184;-76
2022/01/24 11:08:08;;;;;;;49.93;32.20;;;;;;;;;;5070699;28;20427;-76
2022/01/24 11:10:35;;;;;;;48.67;32.00;;;;;;;;;;5053064;28;20449;-76
2022/01/24 11:13:05;;;;;;;50.05;32.80;;;;;;;;;;5050982;28;20506;-76
2022/01/24 11:15:33;;;;;;;48.80;32.08;;;6.40;99.90;;;;;;5103212;27;21153;-77
2022/01/24 11:18:01;;;;;;;51.35;34.25;;;6.40;99.90;;;;;;5059170;28;20940;-76
2022/01/24 11:20:32;;;;;;;48.07;32.63;;;;;;;;;;5090715;28;20525;-77
2022/01/24 11:23:01;;;;;;;49.05;32.60;;;;;;;;;;5072996;28;20421;-77
2022/01/24 11:25:32;;;;;;;51.87;33.50;;;;;;;;;;5055029;28;20490;-77
2022/01/24 11:27:58;;;;;;;49.33;32.50;;;;;;;;;;5055275;28;20433;-77
2022/01/24 11:30:30;;;;;;;46.13;31.70;;;;;;;;;;5077788;28;20826;-76
2022/01/24 11:33:01;;;;;;;45.63;31.42;;;6.00;99.90;;;;;;5064803;28;20423;-77
2022/01/24 11:35:30;;;;;;;46.95;31.20;;;;;;;;;;5076486;28;20861;-77
2022/01/24 11:37:58;;;;;;;47.60;31.83;;;;;;;;;;5077816;28;20430;-77
2022/01/24 11:40:24;;;;;;;50.40;32.58;;;;;;;;;;5058861;28;20406;-76
2022/01/24 11:42:51;;;;;;;48.03;32.65;;;;;;;;;;5074216;28;20489;-77
2022/01/24 11:45:19;;;;;;;49.92;33.53;;;;;;;;;;5054941;28;20921;-77
2022/01/24 11:47:47;;;;;;;51.08;32.40;;;;;;;;;;5092054;28;20756;-77
2022/01/24 11:50:39;;;;;;;52.50;33.78;;;;;;;;;;5057969;28;20465;-76
2022/01/24 11:53:29;;;;;;;48.35;33.25;;;6.30;99.90;;;;;;5070995;28;20453;-76
2022/01/24 11:55:56;;;;;;;52.70;34.92;;;;;;;;;;5073305;28;20480;-77
2022/01/24 11:58:32;;;;;;;50.35;34.75;;;;;;;;;;5087220;28;20438;-77
2022/01/24 12:01:04;;;;;;;49.63;34.53;;;;;;;;;;5103543;27;20410;-77
2022/01/24 12:03:30;;;;;;;54.95;36.10;;;;;;;;;;5102584;28;20915;-76
2022/01/24 12:06:08;;;;;;;54.30;35.63;;;;;;;;;;5107519;27;20801;-77
2022/01/24 12:08:35;;;;;;;54.35;35.83;;;;;;;;;;5077031;28;20429;-77
2022/01/24 12:11:22;;;;;;;56.67;35.05;;;;;;;;;;5077978;28;20489;-76
2022/01/24 12:13:56;;;;;;;53.55;33.95;;;;;;;;;;5046293;28;20475;-77
2022/01/24 12:16:32;;;;;;;55.73;35.07;;;;;;;;;;5077774;28;20505;-77
2022/01/24 12:18:59;;;;;;;50.38;33.70;;;;;;;;;;5077694;28;20434;-78
2022/01/24 12:21:27;;;;;;;50.13;32.40;;;;;;;;;;5074305;28;20488;-77
2022/01/24 12:24:04;;;;;;;50.78;32.95;;;;;;;;;;5073083;28;20414;-78
2022/01/24 12:26:42;;;;;;;47.23;31.70;;;;;;;;;;5058290;28;20524;-77
2022/01/24 12:29:19;;;;;;;47.63;31.67;;;;;;;;;;5107369;27;20443;-77
2022/01/24 12:31:50;;;;;;;50.03;32.37;;;;;;;;;;5076039;28;21314;-77
2022/01/24 12:34:18;;;;;;;49.17;32.05;;;;;;;;;;5091480;28;20412;-77
2022/01/24 12:36:50;;;;;;;49.47;32.13;;;;;;;;;;5079114;28;20909;-77
2022/01/24 12:39:19;;;;;;;49.05;32.03;;;;;;;;;;5114439;27;20445;-77
2022/01/24 12:41:48;;;;;;;52.38;34.03;;;;;;;;;;5065924;28;20510;-77
2022/01/24 12:47:05;;;;;;;52.58;33.65;;;;;;;;;;5085128;28;20421;-76
2022/01/24 12:49:31;;;;;;;54.85;35.20;;;;;;;;;;5083307;28;20414;-77
2022/01/24 12:52:02;;;;;;;55.57;35.70;;;;;;;;;;5080452;28;20527;-77
2022/01/24 12:54:30;;;;;;;53.90;36.00;;;;;;;;;;5086750;28;20463;-77
2022/01/24 12:57:00;;;;;;;55.20;36.53;;;;;;;;;;5084184;28;20402;-78
2022/01/24 12:59:26;;;;;;;53.67;36.30;;;;;;;;;;5066159;28;20421;-77
2022/01/24 13:01:57;;;;;;;57.15;36.90;;;;;;;;;;5050480;28;20416;-77
2022/01/24 13:04:39;;;;;;;53.00;35.80;;;;;;;;;;5105979;27;20430;-78
2022/01/24 13:07:09;;;;;;;55.72;36.92;;;;;;;;;;5109723;27;20545;-77
2022/01/24 13:09:36;;;;;;;54.57;35.30;;;;;;;;;;5081225;28;21045;-77
2022/01/24 13:12:07;;;;;;;52.90;35.25;;;6.40;99.90;;;;;;5065739;28;20952;-77
2022/01/24 13:14:40;;;;;;;57.35;36.65;;;;;;;;;;5067447;28;20911;-77
2022/01/24 13:25:40;;;;;;;56.20;36.42;;;6.80;99.90;;;;;;5033749;28;20422;-77
2022/01/24 13:28:11;;;;;;;55.40;37.97;;;;;;;;;;5082626;28;20419;-77
2022/01/24 13:30:42;;;;;;;54.55;37.35;;;;;;;;;;5088434;28;20459;-77
2022/01/24 13:33:11;;;;;;;54.70;36.63;;;;;;;;;;5082963;28;20561;-77
2022/01/24 13:35:45;;;;;;;55.47;35.97;;;;;;;;;;5077012;28;20431;-77
2022/01/24 13:38:12;;;;;;;55.72;36.80;;;;;;;;;;5065689;28;20444;-78
2022/01/24 13:40:59;;;;;;;55.63;36.15;;;;;;;;;;5084891;28;20419;-77
2022/01/24 13:43:33;;;;;;;51.83;33.90;;;;;;;;;;5082132;28;20450;-77
2022/01/24 13:46:00;;;;;;;50.90;34.13;;;;;;;;;;5085725;28;20417;-77
2022/01/24 13:48:26;;;;;;;54.38;34.65;;;;;;;;;;5085813;28;20425;-77
2022/01/24 13:50:54;;;;;;;53.72;35.60;;;;;;;;;;5087770;28;20423;-77
2022/01/24 13:53:34;;;;;;;55.50;35.40;;;;;;;;;;5084595;28;20459;-77
2022/01/24 13:56:01;;;;;;;57.22;36.83;;;;;;;;;;5083327;28;20466;-77
2022/01/24 13:58:28;;;;;;;53.05;35.60;;;;;;;;;;5068010;28;20447;-78
2022/01/24 14:01:01;;;;;;;57.50;37.35;;;;;;;;;;5078894;28;20415;-77
2022/01/24 14:03:27;;;;;;;55.90;37.78;;;;;;;;;;5087281;28;20413;-77
2022/01/24 14:06:14;;;;;;;59.83;38.88;;;;;;;;;;5067624;28;20411;-78
2022/01/24 14:08:41;;;;;;;54.83;35.72;;;;;;;;;;5070815;28;20414;-79
2022/01/24 14:11:12;;;;;;;49.90;33.33;;;;;;;;;;5076835;28;20497;-79
2022/01/24 14:13:39;;;;;;;50.73;31.83;;;;;;;;;;5081265;28;20419;-78
2022/01/24 14:16:12;;;;;;;46.08;30.85;;;;;;;;;;5058025;28;20409;-76
2022/01/24 14:18:38;;;;;;;51.95;32.85;;;;;;;;;;5070757;28;20404;-77
2022/01/24 14:21:12;;;;;;;49.30;33.15;;;;;;;;;;5088933;28;20422;-78
2022/01/24 14:23:39;;;;;;;48.80;32.85;;;;;;;;;;5108504;27;20406;-77
2022/01/24 14:26:14;;;;;;;53.25;34.30;;;;;;;;;;5071232;28;20454;-78
2022/01/24 14:28:40;;;;;;;50.63;33.85;;;;;;;;;;5068723;28;20418;-79
2022/01/24 14:31:13;;;;;;;53.55;34.33;;;;;;;;;;5083507;28;20422;-80
2022/01/24 14:33:39;;;;;;;51.08;33.65;;;;;;;;;;5068475;28;20422;-79
2022/01/24 14:36:16;;;;;;;52.22;35.17;;;;;;;;;;5092549;28;20419;-79
2022/01/24 14:39:00;;;;;;;54.28;35.63;;;;;;;;;;5094950;28;20423;-80
2022/01/24 14:41:35;;;;;;;50.45;33.17;;;;;;;;;;5067879;28;20457;-76
2022/01/24 14:46:48;;;;;;;52.05;34.85;;;;;;;;;;5066126;28;20422;-77
2022/01/24 14:49:24;;;;;;;54.67;34.90;;;6.10;99.90;;;;;;5082873;28;20423;-78
2022/01/24 14:51:51;;;;;;;53.53;35.28;;;;;;;;;;5086616;28;20818;-78
2022/01/24 14:54:28;;;;;;;53.85;34.67;;;;;;;;;;5070403;28;20414;-78
2022/01/24 14:56:58;;;;;;;54.90;36.30;;;;;;;;;;5079635;28;20421;-77
2022/01/24 14:59:25;;;;;;;55.42;34.92;;;;;;;;;;5063896;28;20427;-78
2022/01/24 15:01:51;;;;;;;55.20;34.15;;;;;;;;;;5075687;28;20429;-77
2022/01/24 15:04:17;;;;;;;53.25;34.53;;;;;;;;;;5063326;28;20766;-76
2022/01/24 15:06:44;;;;;;;52.58;34.58;;;;;;;;;;5081742;28;20444;-77
2022/01/24 15:09:13;;;;;;;50.42;33.47;;;6.30;99.90;;;;;;5084565;28;20414;-77
2022/01/24 15:11:41;;;;;;;54.77;35.07;;;;;;;;;;5087976;28;20459;-77
2022/01/24 15:14:14;;;;;;;54.17;34.65;;;;;;;;;;5068847;28;20433;-77
2022/01/24 15:27:13;;;;;;;51.22;34.08;;;;;;;;;;5076995;28;21734;-77
2022/01/24 15:29:39;;;;;;;51.03;33.00;;;;;;;;;;5081125;28;20830;-77
2022/01/24 15:32:06;;;;;;;49.92;33.00;;;6.10;99.90;;;;;;5082219;28;20944;-76
2022/01/24 15:34:33;;;;;;;52.00;32.05;;;;;;;;;;5063077;28;20497;-76
2022/01/24 15:36:59;;;;;;;47.47;31.98;;;;;;;;;;5088867;28;20422;-76
2022/01/24 15:39:25;;;;;;;54.72;34.45;;;;;;;;;;5072245;28;20409;-76
2022/01/24 15:41:59;;;;;;;54.92;34.78;;;;;;;;;;5086481;28;20454;-76
2022/01/24 15:47:00;;;;;;;51.67;34.38;;;;;;;;;;5084470;28;20919;-76
2022/01/24 15:49:29;;;;;;;50.10;31.73;;;;;;;;;;5076949;28;20845;-76
2022/01/24 15:51:55;;;;;;;52.50;33.17;;;;;;;;;;5068409;28;20897;-76
2022/01/24 15:54:23;;;;;;;54.00;34.97;;;;;;;;;;5082768;28;20423;-77
2022/01/24 15:59:36;;;;;;;53.73;34.40;;;;;;;;;;5078752;28;20479;-76
2022/01/24 16:02:02;;;;;;;56.63;35.67;;;;;;;;;;5069789;28;20905;-77
2022/01/24 16:04:28;;;;;;;51.53;33.73;;;;;;;;;;5064176;28;20521;-77
2022/01/24 16:06:54;;;;;;;49.83;32.28;;;;;;;;;;5082569;28;20564;-76
2022/01/24 16:09:22;;;;;;;51.57;33.70;;;;;;;;;;5078739;28;20488;-77
2022/01/24 16:11:48;;;;;;;54.40;34.63;;;;;;;;;;5073214;28;20770;-76
2022/01/24 16:14:14;;;;;;;54.83;34.37;;;;;;;;;;5101301;28;20412;-76
2022/01/24 16:16:41;;;;;;;52.75;34.65;;;;;;;;;;5066689;28;20410;-76
2022/01/24 16:19:07;;;;;;;53.17;33.83;;;;;;;;;;5088187;28;20429;-76
2022/01/24 16:21:48;;;;;;;51.78;33.88;;;;;;;;;;5091120;28;20414;-77
2022/01/24 16:26:44;;;;;;;54.67;34.47;;;;;;;;;;5084082;28;20913;-76
2022/01/24 16:29:10;;;;;;;52.25;34.17;;;;;;;;;;5070611;28;20512;-77
2022/01/24 16:31:37;;;;;;;55.53;35.03;;;;;;;;;;5077071;28;20485;-78